Terminal Aerodrome Forecast
Issued by NWS Missoula, MT

Home | Current Version | Previous Version | Text Only | Print | Product List | Glossary On
Versions: 1 2 3 4 5 6 7 8 9 10 11 12 13 14 15 16 17 18 19 20 21 22 23 24
000
FTUS45 KMSO 220500
TAFMSO
TAF
KMSO 220534Z 2206/2306 10008KT P6SM VCSH BKN060
     FM221800 10012KT P6SM -SHRA VCTS BKN030 OVC050CB
     FM230300 13010KT P6SM -RA OVC050=

USA.gov is the U.S. government's official web portal to all federal, state and local government web resources and services.